Terminal Aerodrome Forecast
Issued by NWS

Current Version | Previous Version | Text Only | Print | Product List | Glossary On
Versions: 1 2 3 4 5 6 7 8 9 10 11 12 13 14 15 16 17 18 19
000
FTUS45 KSLC 242340
TAFEVW
TAF
KEVW 242340Z 2500/2524 25018G27KT P6SM SCT060 BKN100
     FM250200 24010KT P6SM BKN100
     FM250500 16006KT P6SM BKN100
     FM251700 24019G28KT P6SM VCSH SCT050 BKN080=

USA.gov is the U.S. government's official web portal to all federal, state and local government web resources and services.